createdAt,value
2022-09-27T00:01:14.452Z,99230.31
2022-09-27T00:03:42.670Z,99229.94
2022-09-27T00:06:14.740Z,99221.75
2022-09-27T00:08:43.595Z,99218.78
2022-09-27T00:11:17.642Z,99223.97
2022-09-27T00:13:45.868Z,99225.81
2022-09-27T00:16:15.310Z,99219.47
2022-09-27T00:18:43.665Z,99217.63
2022-09-27T00:21:13.829Z,99216.09
2022-09-27T00:23:42.270Z,99211.03
2022-09-27T00:26:14.351Z,99211.88
2022-09-27T00:28:42.615Z,99207.81
2022-09-27T00:31:23.612Z,99196.44
2022-09-27T00:33:53.266Z,99193.28
2022-09-27T00:36:22.845Z,99201.63
2022-09-27T00:38:51.256Z,99194.00
2022-09-27T00:41:21.298Z,99202.00
2022-09-27T00:43:52.146Z,99195.00
2022-09-27T00:46:26.564Z,99183.44
2022-09-27T00:49:06.027Z,99192.19
2022-09-27T00:51:37.513Z,99188.56
2022-09-27T00:54:08.070Z,99187.00
2022-09-27T00:56:39.980Z,99183.88
2022-09-27T00:59:13.809Z,99181.88
2022-09-27T01:01:43.369Z,99181.06
2022-09-27T01:04:13.848Z,99177.53
2022-09-27T01:06:42.288Z,99173.88
2022-09-27T01:09:12.258Z,99173.03
2022-09-27T01:11:44.690Z,99173.75
2022-09-27T01:14:36.465Z,99168.25
2022-09-27T01:17:19.418Z,99168.50
2022-09-27T01:20:37.969Z,99156.88
2022-09-27T01:23:28.824Z,99158.44
2022-09-27T01:26:12.202Z,99162.94
2022-09-27T01:28:50.821Z,99153.91
2022-09-27T01:31:25.743Z,99159.25
2022-09-27T01:34:04.964Z,99153.91
2022-09-27T01:36:44.198Z,99148.44
2022-09-27T01:39:23.426Z,99153.63
2022-09-27T01:42:03.568Z,99153.47
2022-09-27T01:44:36.644Z,99150.78
2022-09-27T01:47:13.471Z,99140.94
2022-09-27T01:49:48.305Z,99140.94
2022-09-27T01:52:20.495Z,99133.88
2022-09-27T01:54:54.982Z,99138.13
2022-09-27T01:57:27.688Z,99139.25
2022-09-27T02:00:01.478Z,99138.69
2022-09-27T02:02:35.072Z,99126.03
2022-09-27T02:05:07.059Z,99133.63
2022-09-27T02:07:41.367Z,99125.88
2022-09-27T02:10:14.685Z,99131.38
2022-09-27T02:12:52.822Z,99124.34
2022-09-27T02:15:21.530Z,99124.19
2022-09-27T02:17:58.233Z,99121.06
2022-09-27T02:20:32.243Z,99118.69
2022-09-27T02:23:11.845Z,99120.81
2022-09-27T02:25:45.563Z,99118.84
2022-09-27T02:28:23.383Z,99117.84
2022-09-27T02:30:51.688Z,99118.00
2022-09-27T02:33:24.227Z,99119.13
2022-09-27T02:35:52.337Z,99111.09
2022-09-27T02:38:21.017Z,99115.31
2022-09-27T02:40:49.742Z,99114.19
2022-09-27T02:43:20.317Z,99107.13
2022-09-27T02:46:02.450Z,99106.84
2022-09-27T02:48:41.158Z,99110.91
2022-09-27T02:51:31.411Z,99104.31
2022-09-27T02:54:08.592Z,99107.44
2022-09-27T02:56:48.842Z,99105.75
2022-09-27T02:59:33.255Z,99098.72
2022-09-27T03:02:12.644Z,99102.38
2022-09-27T03:04:49.106Z,99103.22
2022-09-27T03:07:17.892Z,99094.06
2022-09-27T03:09:48.158Z,99087.19
2022-09-27T03:12:20.847Z,99093.38
2022-09-27T03:14:49.113Z,99092.53
2022-09-27T03:17:17.160Z,99094.50
2022-09-27T03:19:46.491Z,99092.69
2022-09-27T03:22:14.417Z,99085.75
2022-09-27T03:24:42.591Z,99085.56
2022-09-27T03:27:11.152Z,99084.06
2022-09-27T03:29:39.024Z,99080.38
2022-09-27T03:32:07.038Z,99078.09
2022-09-27T03:34:34.988Z,99082.78
2022-09-27T03:37:04.237Z,99079.94
2022-09-27T03:39:33.288Z,99069.94
2022-09-27T03:42:01.402Z,99072.00
2022-09-27T03:44:29.328Z,99066.09
2022-09-27T03:46:58.751Z,99066.78
2022-09-27T03:49:26.978Z,99061.75
2022-09-27T03:51:54.950Z,99063.47
2022-09-27T03:54:25.150Z,99064.59
2022-09-27T03:56:53.298Z,99059.94
2022-09-27T03:59:21.219Z,99057.38
2022-09-27T04:01:49.279Z,99056.09
2022-09-27T04:04:17.474Z,99057.09
2022-09-27T04:06:45.381Z,99057.38
2022-09-27T04:09:13.327Z,99054.25
2022-09-27T04:11:42.747Z,99048.06
2022-09-27T04:14:13.059Z,99053.56
2022-09-27T04:16:41.439Z,99056.69
2022-09-27T04:19:10.894Z,99056.25
2022-09-27T04:21:38.901Z,99052.13
2022-09-27T04:24:07.113Z,99059.84
2022-09-27T04:26:35.331Z,99058.00
2022-09-27T04:29:04.761Z,99054.47
2022-09-27T04:31:33.141Z,99053.94
2022-09-27T04:34:01.110Z,99054.00
2022-09-27T04:36:28.114Z,99055.56
2022-09-27T04:38:56.737Z,99047.38
2022-09-27T04:41:25.735Z,99046.56
2022-09-27T04:43:58.892Z,99050.06
2022-09-27T04:46:31.803Z,99046.84
2022-09-27T04:49:00.604Z,99042.03
2022-09-27T04:51:29.153Z,99043.41
2022-09-27T04:53:57.732Z,99038.31
2022-09-27T04:56:26.224Z,99045.63
2022-09-27T04:58:54.162Z,99039.88
2022-09-27T05:01:22.974Z,99040.41
2022-09-27T05:03:52.285Z,99046.63
2022-09-27T05:06:20.672Z,99048.38
2022-09-27T05:08:48.678Z,99049.38
2022-09-27T05:11:16.645Z,99048.84
2022-09-27T05:13:44.604Z,99052.06
2022-09-27T05:16:12.702Z,99046.88
2022-09-27T05:18:40.652Z,99045.41
2022-09-27T05:21:10.009Z,99042.22
2022-09-27T05:23:38.181Z,99044.66
2022-09-27T05:26:06.552Z,99044.66
2022-09-27T05:28:35.192Z,99038.13
2022-09-27T05:31:03.824Z,99045.03
2022-09-27T05:33:34.440Z,99043.81
2022-09-27T05:36:04.578Z,99047.69
2022-09-27T05:38:35.226Z,99045.56
2022-09-27T05:41:03.427Z,99052.28
2022-09-27T05:43:32.073Z,99051.28
2022-09-27T05:46:00.919Z,99052.44
2022-09-27T05:48:30.333Z,99055.25
2022-09-27T05:50:58.598Z,99054.03
2022-09-27T05:53:26.673Z,99058.31
2022-09-27T05:55:56.043Z,99055.88
2022-09-27T05:58:24.056Z,99052.38
2022-09-27T06:00:51.948Z,99067.66
2022-09-27T06:03:20.922Z,99064.50
2022-09-27T06:05:51.413Z,99067.41
2022-09-27T06:08:20.778Z,99064.13
2022-09-27T06:10:48.952Z,99061.16
2022-09-27T06:13:18.637Z,99064.50
2022-09-27T06:15:47.563Z,99060.84
2022-09-27T06:18:18.305Z,99062.47
2022-09-27T06:20:46.847Z,99060.84
2022-09-27T06:23:17.500Z,99062.91
2022-09-27T06:25:46.793Z,99062.75
2022-09-27T06:28:15.209Z,99058.78
2022-09-27T06:30:45.696Z,99058.78
2022-09-27T06:33:16.107Z,99064.66
2022-09-27T06:35:45.459Z,99059.22
2022-09-27T06:38:15.757Z,99059.72
2022-09-27T06:40:45.632Z,99068.41
2022-09-27T06:43:15.562Z,99066.53
2022-09-27T06:45:45.569Z,99059.03
2022-09-27T06:48:15.808Z,99067.41
2022-09-27T06:50:45.313Z,99066.94
2022-09-27T06:53:14.715Z,99068.66
2022-09-27T06:55:43.127Z,99073.63
2022-09-27T06:58:30.829Z,99082.69
2022-09-27T07:01:00.278Z,99084.25
2022-09-27T07:03:35.407Z,99082.34
2022-09-27T07:06:07.877Z,99081.66
2022-09-27T07:08:36.077Z,99079.78
2022-09-27T07:11:06.034Z,99085.91
2022-09-27T07:13:37.211Z,99090.28
2022-09-27T07:16:06.939Z,99091.66
2022-09-27T07:18:34.953Z,99091.19
2022-09-27T07:21:02.947Z,99097.50
2022-09-27T07:23:30.818Z,99100.88
2022-09-27T07:26:04.712Z,99094.81
2022-09-27T07:28:32.873Z,99109.19
2022-09-27T07:31:02.372Z,99115.00
2022-09-27T07:33:32.257Z,99107.13
2022-09-27T07:36:00.208Z,99109.03
2022-09-27T07:38:28.236Z,99111.03
2022-09-27T07:40:56.454Z,99114.63
2022-09-27T07:43:24.674Z,99120.44
2022-09-27T07:45:52.611Z,99122.28
2022-09-27T07:48:20.743Z,99129.53
2022-09-27T07:50:50.043Z,99129.69
2022-09-27T07:53:19.828Z,99126.25
2022-09-27T07:55:53.247Z,99128.34
2022-09-27T07:58:24.903Z,99125.25
2022-09-27T08:00:54.778Z,99131.81
2022-09-27T08:03:22.901Z,99128.81
2022-09-27T08:05:52.226Z,99136.00
2022-09-27T08:08:20.193Z,99132.84
2022-09-27T08:10:48.098Z,99136.22
2022-09-27T08:13:20.285Z,99137.88
2022-09-27T08:15:48.808Z,99142.56
2022-09-27T08:18:17.687Z,99143.41
2022-09-27T08:20:46.051Z,99144.03
2022-09-27T08:23:15.417Z,99146.81
2022-09-27T08:25:43.566Z,99156.38
2022-09-27T08:28:11.708Z,99152.34
2022-09-27T08:30:39.743Z,99160.53
2022-09-27T08:33:08.272Z,99157.94
2022-09-27T08:35:36.363Z,99163.47
2022-09-27T08:38:06.281Z,99160.28
2022-09-27T08:40:50.340Z,99166.81
2022-09-27T08:43:28.576Z,99169.69
2022-09-27T08:46:08.964Z,99167.00
2022-09-27T08:48:39.447Z,99170.31
2022-09-27T08:51:12.215Z,99171.16
2022-09-27T08:53:44.622Z,99178.81
2022-09-27T08:56:15.848Z,99174.13
2022-09-27T08:58:50.102Z,99176.91
2022-09-27T09:01:20.469Z,99180.91
2022-09-27T09:03:51.896Z,99183.56
2022-09-27T09:06:27.211Z,99186.41
2022-09-27T09:09:09.646Z,99179.00
2022-09-27T09:12:08.636Z,99186.31
2022-09-27T09:15:03.131Z,99185.19
2022-09-27T09:17:49.489Z,99184.88
2022-09-27T09:20:30.244Z,99193.06
2022-09-27T09:23:22.913Z,99195.28
2022-09-27T09:25:59.768Z,99204.97
2022-09-27T09:28:42.486Z,99196.22
2022-09-27T09:31:16.713Z,99204.03
2022-09-27T09:33:52.776Z,99203.88
2022-09-27T09:36:31.185Z,99202.34
2022-09-27T09:39:04.331Z,99204.25
2022-09-27T09:41:40.118Z,99207.13
2022-09-27T09:44:18.938Z,99212.03
2022-09-27T09:46:51.520Z,99209.88
2022-09-27T09:49:25.361Z,99199.16
2022-09-27T09:51:58.245Z,99214.66
2022-09-27T09:54:31.658Z,99208.66
2022-09-27T09:57:04.953Z,99211.91
2022-09-27T09:59:41.524Z,99208.28
2022-09-27T10:02:21.961Z,99215.34
2022-09-27T10:04:50.203Z,99218.00
2022-09-27T10:07:22.062Z,99220.00
2022-09-27T10:09:50.473Z,99220.00
2022-09-27T10:12:18.624Z,99224.56
2022-09-27T10:14:50.524Z,99228.78
2022-09-27T10:17:22.034Z,99221.88
2022-09-27T10:19:52.833Z,99226.69
2022-09-27T10:22:33.898Z,99226.66
2022-09-27T10:25:03.969Z,99220.69
2022-09-27T10:27:43.544Z,99225.34
2022-09-27T10:30:26.770Z,99231.78
2022-09-27T10:32:58.693Z,99227.34
2022-09-27T10:35:39.286Z,99225.19
2022-09-27T10:38:24.929Z,99230.88
2022-09-27T10:40:55.431Z,99234.22
2022-09-27T10:43:32.660Z,99229.38
2022-09-27T10:46:14.214Z,99243.63
2022-09-27T10:48:43.030Z,99236.72
2022-09-27T10:51:25.457Z,99243.34
2022-09-27T10:53:54.028Z,99247.13
2022-09-27T10:56:25.100Z,99240.97
2022-09-27T10:58:53.784Z,99242.91
2022-09-27T11:01:23.612Z,99251.97
2022-09-27T11:03:54.906Z,99244.03
2022-09-27T11:06:38.059Z,99241.31
2022-09-27T11:09:19.974Z,99250.22
2022-09-27T11:11:47.870Z,99248.09
2022-09-27T11:14:21.476Z,99253.13
2022-09-27T11:17:22.127Z,99252.88
2022-09-27T11:20:14.461Z,99247.00
2022-09-27T11:23:23.367Z,99251.13
2022-09-27T11:26:07.794Z,99247.44
2022-09-27T11:28:51.226Z,99250.38
2022-09-27T11:31:29.852Z,99261.16
2022-09-27T11:34:13.891Z,99252.03
2022-09-27T11:36:57.255Z,99257.81
2022-09-27T11:39:33.027Z,99255.91
2022-09-27T11:42:25.722Z,99259.13
2022-09-27T11:45:41.216Z,99255.41
2022-09-27T11:48:10.621Z,99257.53
2022-09-27T11:51:03.571Z,99257.13
2022-09-27T11:53:44.830Z,99259.63
2022-09-27T11:56:24.527Z,99261.78
2022-09-27T11:59:03.828Z,99260.47
2022-09-27T12:01:44.085Z,99267.13
2022-09-27T12:04:38.528Z,99260.59
2022-09-27T12:07:17.581Z,99267.59
2022-09-27T12:09:49.825Z,99264.78
2022-09-27T12:12:21.589Z,99267.47
2022-09-27T12:14:53.670Z,99266.72
2022-09-27T12:17:25.112Z,99269.78
2022-09-27T12:19:56.665Z,99270.34
2022-09-27T12:22:57.067Z,99274.22
2022-09-27T12:25:21.236Z,99266.00
2022-09-27T12:27:52.592Z,99276.91
2022-09-27T12:30:20.612Z,99268.84
2022-09-27T12:32:57.872Z,99268.69
2022-09-27T12:35:30.092Z,99272.06
2022-09-27T12:38:04.292Z,99268.72
2022-09-27T12:40:36.110Z,99268.44
2022-09-27T12:43:09.127Z,99275.00
2022-09-27T12:45:46.307Z,99264.06
2022-09-27T12:48:21.991Z,99263.06
2022-09-27T12:50:53.703Z,99262.19
2022-09-27T12:53:26.974Z,99268.38
2022-09-27T12:56:11.860Z,99263.34
2022-09-27T12:58:59.541Z,99256.44
2022-09-27T13:01:44.286Z,99273.56
2022-09-27T13:04:39.314Z,99272.91
2022-09-27T13:07:27.523Z,99274.03
2022-09-27T13:10:36.584Z,99276.84
2022-09-27T13:13:06.478Z,99269.34
2022-09-27T13:15:39.734Z,99279.50
2022-09-27T13:18:30.687Z,99279.13
2022-09-27T13:20:58.705Z,99290.97
2022-09-27T13:24:00.759Z,99290.19
2022-09-27T13:27:01.415Z,99289.25
2022-09-27T13:29:33.327Z,99296.66
2022-09-27T13:32:23.358Z,99297.16
2022-09-27T13:34:54.034Z,99308.56
2022-09-27T13:37:40.209Z,99306.53
2022-09-27T13:40:25.947Z,99301.78
2022-09-27T13:43:10.238Z,99308.19
2022-09-27T13:45:43.185Z,99306.22
2022-09-27T13:48:17.233Z,99311.31
2022-09-27T13:50:51.126Z,99308.19
2022-09-27T13:53:26.914Z,99320.22
2022-09-27T13:55:55.577Z,99307.28
2022-09-27T13:58:55.898Z,99318.31
2022-09-27T14:01:29.975Z,99325.13
2022-09-27T14:04:03.511Z,99319.06
2022-09-27T14:06:35.505Z,99313.81
2022-09-27T14:09:06.659Z,99321.31
2022-09-27T14:11:40.229Z,99318.50
2022-09-27T14:14:18.727Z,99317.00
2022-09-27T14:16:47.819Z,99320.19
2022-09-27T14:19:19.940Z,99328.16
2022-09-27T14:21:49.604Z,99322.81
2022-09-27T14:24:26.914Z,99331.16
2022-09-27T14:27:17.499Z,99331.84
2022-09-27T14:29:49.593Z,99337.22
2022-09-27T14:32:19.428Z,99332.78
2022-09-27T14:34:47.875Z,99333.63
2022-09-27T14:37:26.159Z,99341.81
2022-09-27T14:40:06.144Z,99348.16
2022-09-27T14:42:37.651Z,99351.94
2022-09-27T14:45:20.277Z,99352.28
2022-09-27T14:47:49.481Z,99353.91
2022-09-27T14:50:21.684Z,99369.38
2022-09-27T14:52:52.522Z,99359.25
2022-09-27T14:55:22.522Z,99360.31
2022-09-27T14:57:53.881Z,99353.88
2022-09-27T15:00:26.229Z,99354.66
2022-09-27T15:02:56.237Z,99367.81
2022-09-27T15:05:27.424Z,99363.16
2022-09-27T15:07:58.337Z,99363.81
2022-09-27T15:10:28.839Z,99369.47
2022-09-27T15:13:00.104Z,99366.06
2022-09-27T15:15:32.360Z,99372.72
2022-09-27T15:18:00.995Z,99362.84
2022-09-27T15:20:34.938Z,99370.16
2022-09-27T15:23:04.810Z,99377.34
2022-09-27T15:25:35.862Z,99384.06
2022-09-27T15:28:07.588Z,99377.41
2022-09-27T15:30:39.394Z,99383.91
2022-09-27T15:33:19.629Z,99386.75
2022-09-27T15:35:51.416Z,99382.72
2022-09-27T15:38:29.050Z,99389.47
2022-09-27T15:41:03.773Z,99389.09
2022-09-27T15:43:35.123Z,99393.28
2022-09-27T15:46:07.028Z,99390.16
2022-09-27T15:48:37.860Z,99390.59
2022-09-27T15:51:40.830Z,99393.38
2022-09-27T15:54:08.911Z,99392.31
2022-09-27T15:56:37.447Z,99389.31
2022-09-27T15:59:05.704Z,99398.56
2022-09-27T16:01:35.179Z,99397.81
2022-09-27T16:04:03.241Z,99399.25
2022-09-27T16:06:31.192Z,99399.81
2022-09-27T16:08:59.435Z,99406.56
2022-09-27T16:11:27.311Z,99404.19
2022-09-27T16:13:55.198Z,99424.34
2022-09-27T16:16:24.056Z,99418.97
2022-09-27T16:18:53.548Z,99430.25
2022-09-27T16:21:21.432Z,99423.69
2022-09-27T16:23:49.447Z,99427.03
2022-09-27T16:26:19.504Z,99418.91
2022-09-27T16:28:49.040Z,99426.81
2022-09-27T16:31:18.431Z,99437.25
2022-09-27T16:33:49.668Z,99445.41
2022-09-27T16:36:20.614Z,99450.34
2022-09-27T16:38:52.994Z,99450.50
2022-09-27T16:41:22.493Z,99458.25
2022-09-27T16:43:50.513Z,99465.16
2022-09-27T16:46:19.734Z,99463.44
2022-09-27T16:48:48.834Z,99471.06
2022-09-27T16:51:37.984Z,99465.16
2022-09-27T16:54:07.411Z,99472.31
2022-09-27T16:56:35.951Z,99467.28
2022-09-27T16:59:06.705Z,99473.34
2022-09-27T17:01:35.313Z,99476.13
2022-09-27T17:04:04.243Z,99468.81
2022-09-27T17:06:33.981Z,99477.13
2022-09-27T17:09:04.455Z,99481.47
2022-09-27T17:11:33.257Z,99478.94
2022-09-27T17:14:01.353Z,99483.91
2022-09-27T17:16:29.543Z,99475.31
2022-09-27T17:18:57.701Z,99482.09
2022-09-27T17:21:25.826Z,99475.47
2022-09-27T17:23:55.215Z,99475.34
2022-09-27T17:26:24.285Z,99475.47
2022-09-27T17:28:55.080Z,99473.38
2022-09-27T17:31:23.069Z,99473.34
2022-09-27T17:33:57.431Z,99476.75
2022-09-27T17:36:27.928Z,99474.34
2022-09-27T17:38:58.725Z,99471.69
2022-09-27T17:41:28.969Z,99472.94
2022-09-27T17:43:58.915Z,99470.53
2022-09-27T17:46:29.252Z,99468.16
2022-09-27T17:49:15.349Z,99468.31
2022-09-27T17:51:44.194Z,99474.63
2022-09-27T17:54:13.865Z,99474.38
2022-09-27T17:56:43.946Z,99468.59
2022-09-27T17:59:15.906Z,99481.56
2022-09-27T18:01:45.322Z,99477.75
2022-09-27T18:04:15.276Z,99477.72
2022-09-27T18:06:46.418Z,99481.38
2022-09-27T18:09:17.965Z,99482.22
2022-09-27T18:11:46.037Z,99488.38
2022-09-27T18:14:14.574Z,99483.03
2022-09-27T18:16:44.007Z,99481.03
2022-09-27T18:19:13.489Z,99480.88
2022-09-27T18:21:41.375Z,99483.59
2022-09-27T18:24:10.926Z,99475.84
2022-09-27T18:26:40.813Z,99489.47
2022-09-27T18:29:12.042Z,99488.50
2022-09-27T18:31:42.129Z,99495.81
2022-09-27T18:34:13.056Z,99493.72
2022-09-27T18:36:42.396Z,99492.59
2022-09-27T18:39:13.971Z,99491.31
2022-09-27T18:41:43.297Z,99495.81
2022-09-27T18:44:13.581Z,99496.78
2022-09-27T18:46:41.829Z,99502.28
2022-09-27T18:49:12.374Z,99497.81
2022-09-27T18:51:44.090Z,99496.81
2022-09-27T18:54:16.162Z,99498.25
2022-09-27T18:56:45.782Z,99502.22
2022-09-27T18:59:14.059Z,99488.94
2022-09-27T19:01:45.455Z,99508.22
2022-09-27T19:04:16.925Z,99502.16
2022-09-27T19:06:47.422Z,99501.91
2022-09-27T19:09:15.333Z,99503.72
2022-09-27T19:11:43.297Z,99503.00
2022-09-27T19:14:16.960Z,99507.25
2022-09-27T19:16:47.147Z,99507.63
2022-09-27T19:19:17.073Z,99509.03
2022-09-27T19:21:45.450Z,99513.41
2022-09-27T19:24:16.266Z,99511.56
2022-09-27T19:26:44.606Z,99515.09
2022-09-27T19:29:14.813Z,99517.59
2022-09-27T19:31:43.299Z,99518.31
2022-09-27T19:34:11.984Z,99517.59
2022-09-27T19:36:39.872Z,99521.13
2022-09-27T19:39:08.037Z,99518.50
2022-09-27T19:41:35.923Z,99516.38
2022-09-27T19:44:03.929Z,99504.69
2022-09-27T19:46:33.211Z,99519.19
2022-09-27T19:49:01.709Z,99507.25
2022-09-27T19:51:31.024Z,99514.88
2022-09-27T19:53:58.924Z,99508.69
2022-09-27T19:56:27.942Z,99516.13
2022-09-27T19:58:55.807Z,99515.16
2022-09-27T20:01:25.318Z,99513.13
2022-09-27T20:03:56.902Z,99518.06
2022-09-27T20:06:25.258Z,99513.56
2022-09-27T20:08:53.296Z,99514.56
2022-09-27T20:11:22.901Z,99510.03
2022-09-27T20:13:52.951Z,99507.38
2022-09-27T20:16:22.853Z,99510.63
2022-09-27T20:18:52.607Z,99514.16
2022-09-27T20:21:24.442Z,99519.47
2022-09-27T20:23:54.158Z,99519.78
2022-09-27T20:26:24.296Z,99513.84
2022-09-27T20:28:53.999Z,99515.09
2022-09-27T20:31:23.264Z,99519.88
2022-09-27T20:33:51.657Z,99510.47
2022-09-27T20:36:22.769Z,99510.31
2022-09-27T20:38:52.804Z,99509.75
2022-09-27T20:41:22.847Z,99511.44
2022-09-27T20:43:54.685Z,99512.00
2022-09-27T20:46:23.860Z,99507.09
2022-09-27T20:48:53.828Z,99506.78
2022-09-27T20:51:23.313Z,99510.31
2022-09-27T20:53:51.989Z,99503.88
2022-09-27T20:56:22.003Z,99512.84
2022-09-27T20:58:51.023Z,99514.03
2022-09-27T21:01:19.494Z,99511.19
2022-09-27T21:03:48.056Z,99512.59
2022-09-27T21:06:16.290Z,99503.41
2022-09-27T21:08:45.557Z,99510.72
2022-09-27T21:11:15.453Z,99515.38
2022-09-27T21:13:44.775Z,99507.22
2022-09-27T21:16:14.805Z,99516.78
2022-09-27T21:18:43.061Z,99510.72
2022-09-27T21:21:12.450Z,99513.94
2022-09-27T21:23:44.583Z,99511.84
2022-09-27T21:26:16.077Z,99512.94
2022-09-27T21:28:45.814Z,99521.94
2022-09-27T21:31:21.640Z,99512.13
2022-09-27T21:33:53.570Z,99511.78
2022-09-27T21:36:22.738Z,99527.97
2022-09-27T21:38:50.871Z,99519.66
2022-09-27T21:41:20.512Z,99519.25
2022-09-27T21:43:49.820Z,99524.53
2022-09-27T21:46:19.622Z,99525.22
2022-09-27T21:48:49.841Z,99518.56
2022-09-27T21:51:19.217Z,99525.09
2022-09-27T21:53:51.408Z,99525.28
2022-09-27T21:56:21.711Z,99528.38
2022-09-27T21:58:49.997Z,99529.47
2022-09-27T22:01:19.643Z,99527.53
2022-09-27T22:03:48.256Z,99534.31
2022-09-27T22:06:18.659Z,99529.81
2022-09-27T22:08:47.479Z,99537.69
2022-09-27T22:11:17.001Z,99540.50
2022-09-27T22:13:46.366Z,99536.78
2022-09-27T22:16:16.518Z,99537.78
2022-09-27T22:18:45.320Z,99542.97
2022-09-27T22:21:15.394Z,99536.28
2022-09-27T22:23:45.564Z,99545.16
2022-09-27T22:26:14.647Z,99544.00
2022-09-27T22:28:42.671Z,99546.25
2022-09-27T22:31:15.380Z,99542.03
2022-09-27T22:33:44.002Z,99548.09
2022-09-27T22:36:11.837Z,99540.72
2022-09-27T22:38:40.405Z,99545.59
2022-09-27T22:41:08.297Z,99547.31
2022-09-27T22:43:36.163Z,99550.03
2022-09-27T22:46:04.729Z,99547.81
2022-09-27T22:48:34.277Z,99545.72
2022-09-27T22:51:03.550Z,99544.63
2022-09-27T22:53:32.470Z,99543.78
2022-09-27T22:56:04.322Z,99552.63
2022-09-27T22:58:34.439Z,99545.47
2022-09-27T23:01:08.840Z,99547.88
2022-09-27T23:03:38.368Z,99544.50
2022-09-27T23:06:07.324Z,99540.47
2022-09-27T23:08:36.377Z,99541.03
2022-09-27T23:11:06.041Z,99538.13
2022-09-27T23:13:34.937Z,99534.97
2022-09-27T23:16:03.886Z,99528.81
2022-09-27T23:18:32.815Z,99526.44
2022-09-27T23:21:04.214Z,99527.59
2022-09-27T23:23:32.896Z,99528.94
2022-09-27T23:26:02.697Z,99535.94
2022-09-27T23:28:31.618Z,99534.84
2022-09-27T23:31:05.640Z,99533.72
2022-09-27T23:33:34.080Z,99531.72
2022-09-27T23:36:04.425Z,99533.72
2022-09-27T23:38:32.600Z,99538.44
2022-09-27T23:41:01.307Z,99527.88
2022-09-27T23:43:29.402Z,99534.16
2022-09-27T23:45:57.494Z,99526.97
2022-09-27T23:48:26.147Z,99532.31
2022-09-27T23:50:54.279Z,99533.88
2022-09-27T23:53:24.169Z,99521.41
2022-09-27T23:56:02.457Z,99524.38
2022-09-27T23:58:33.704Z,99520.03
